sensor_id;sensor_type;location;lat;lon;timestamp;P1;durP1;ratioP1;P2;durP2;ratioP2
52320;SDS011;38261;54.090;13.382;2023-11-19T00:00:15;5.13;;;3.40;;
52320;SDS011;38261;54.090;13.382;2023-11-19T00:01:38;6.03;;;3.57;;
52320;SDS011;38261;54.090;13.382;2023-11-19T00:03:00;4.23;;;3.37;;
52320;SDS011;38261;54.090;13.382;2023-11-19T00:04:23;5.50;;;3.60;;
52320;SDS011;38261;54.090;13.382;2023-11-19T00:05:45;7.10;;;3.73;;
52320;SDS011;38261;54.090;13.382;2023-11-19T00:07:07;6.93;;;3.50;;
52320;SDS011;38261;54.090;13.382;2023-11-19T00:08:31;5.33;;;3.00;;
52320;SDS011;38261;54.090;13.382;2023-11-19T00:09:54;3.63;;;3.00;;
52320;SDS011;38261;54.090;13.382;2023-11-19T00:11:16;4.53;;;3.20;;
52320;SDS011;38261;54.090;13.382;2023-11-19T00:12:42;5.70;;;3.43;;
52320;SDS011;38261;54.090;13.382;2023-11-19T00:14:06;6.53;;;3.50;;
52320;SDS011;38261;54.090;13.382;2023-11-19T00:15:30;6.47;;;3.37;;
52320;SDS011;38261;54.090;13.382;2023-11-19T00:16:52;4.10;;;3.40;;
52320;SDS011;38261;54.090;13.382;2023-11-19T00:18:15;5.73;;;3.27;;
52320;SDS011;38261;54.090;13.382;2023-11-19T00:19:37;5.40;;;3.50;;
52320;SDS011;38261;54.090;13.382;2023-11-19T00:20:59;5.70;;;3.17;;
52320;SDS011;38261;54.090;13.382;2023-11-19T00:22:21;8.03;;;3.43;;
52320;SDS011;38261;54.090;13.382;2023-11-19T00:23:44;6.23;;;3.17;;
52320;SDS011;38261;54.090;13.382;2023-11-19T00:25:06;4.73;;;3.63;;
52320;SDS011;38261;54.090;13.382;2023-11-19T00:26:29;5.97;;;3.20;;
52320;SDS011;38261;54.090;13.382;2023-11-19T00:27:51;7.80;;;3.40;;
52320;SDS011;38261;54.090;13.382;2023-11-19T00:29:15;6.63;;;3.57;;
52320;SDS011;38261;54.090;13.382;2023-11-19T00:30:40;4.30;;;3.10;;
52320;SDS011;38261;54.090;13.382;2023-11-19T00:32:02;6.27;;;3.80;;
52320;SDS011;38261;54.090;13.382;2023-11-19T00:33:27;8.57;;;3.73;;
52320;SDS011;38261;54.090;13.382;2023-11-19T00:34:49;5.20;;;3.63;;
52320;SDS011;38261;54.090;13.382;2023-11-19T00:36:11;4.67;;;3.30;;
52320;SDS011;38261;54.090;13.382;2023-11-19T00:37:34;6.30;;;4.10;;
52320;SDS011;38261;54.090;13.382;2023-11-19T00:38:56;4.73;;;3.30;;
52320;SDS011;38261;54.090;13.382;2023-11-19T00:40:18;4.97;;;3.77;;
52320;SDS011;38261;54.090;13.382;2023-11-19T00:41:43;4.80;;;3.20;;
52320;SDS011;38261;54.090;13.382;2023-11-19T00:43:05;5.43;;;3.90;;
52320;SDS011;38261;54.090;13.382;2023-11-19T00:44:27;5.07;;;4.00;;
52320;SDS011;38261;54.090;13.382;2023-11-19T00:45:49;7.87;;;3.53;;
52320;SDS011;38261;54.090;13.382;2023-11-19T00:47:12;6.27;;;3.60;;
52320;SDS011;38261;54.090;13.382;2023-11-19T00:48:34;4.47;;;3.37;;
52320;SDS011;38261;54.090;13.382;2023-11-19T00:49:56;8.30;;;4.17;;
52320;SDS011;38261;54.090;13.382;2023-11-19T00:51:19;6.27;;;4.63;;
52320;SDS011;38261;54.090;13.382;2023-11-19T00:52:41;5.80;;;3.90;;
52320;SDS011;38261;54.090;13.382;2023-11-19T00:54:03;5.80;;;3.73;;
52320;SDS011;38261;54.090;13.382;2023-11-19T00:55:25;6.20;;;4.10;;
52320;SDS011;38261;54.090;13.382;2023-11-19T00:56:48;6.83;;;4.30;;
52320;SDS011;38261;54.090;13.382;2023-11-19T00:58:10;7.43;;;4.50;;
52320;SDS011;38261;54.090;13.382;2023-11-19T00:59:32;7.20;;;4.40;;
52320;SDS011;38261;54.090;13.382;2023-11-19T01:00:54;8.50;;;4.50;;
52320;SDS011;38261;54.090;13.382;2023-11-19T01:02:16;8.47;;;4.47;;
52320;SDS011;38261;54.090;13.382;2023-11-19T01:03:38;8.00;;;4.33;;
52320;SDS011;38261;54.090;13.382;2023-11-19T01:05:01;8.23;;;4.57;;
52320;SDS011;38261;54.090;13.382;2023-11-19T01:06:26;6.70;;;4.17;;
52320;SDS011;38261;54.090;13.382;2023-11-19T01:07:49;9.77;;;4.50;;
52320;SDS011;38261;54.090;13.382;2023-11-19T01:09:13;7.83;;;4.70;;
52320;SDS011;38261;54.090;13.382;2023-11-19T01:10:36;10.50;;;5.27;;
52320;SDS011;38261;54.090;13.382;2023-11-19T01:11:59;9.60;;;4.53;;
52320;SDS011;38261;54.090;13.382;2023-11-19T01:13:22;10.33;;;4.90;;
52320;SDS011;38261;54.090;13.382;2023-11-19T01:14:44;11.10;;;5.80;;
52320;SDS011;38261;54.090;13.382;2023-11-19T01:16:06;7.43;;;4.97;;
52320;SDS011;38261;54.090;13.382;2023-11-19T01:17:29;9.00;;;5.57;;
52320;SDS011;38261;54.090;13.382;2023-11-19T01:18:53;6.20;;;4.40;;
52320;SDS011;38261;54.090;13.382;2023-11-19T01:20:32;7.93;;;5.10;;
52320;SDS011;38261;54.090;13.382;2023-11-19T01:21:55;7.47;;;4.90;;
52320;SDS011;38261;54.090;13.382;2023-11-19T01:23:18;9.03;;;5.13;;
52320;SDS011;38261;54.090;13.382;2023-11-19T01:24:40;10.17;;;5.43;;
52320;SDS011;38261;54.090;13.382;2023-11-19T01:26:02;10.63;;;5.47;;
52320;SDS011;38261;54.090;13.382;2023-11-19T01:27:24;9.07;;;5.33;;
52320;SDS011;38261;54.090;13.382;2023-11-19T01:28:46;8.93;;;5.40;;
52320;SDS011;38261;54.090;13.382;2023-11-19T01:30:13;9.80;;;5.63;;
52320;SDS011;38261;54.090;13.382;2023-11-19T01:31:35;10.53;;;5.33;;
52320;SDS011;38261;54.090;13.382;2023-11-19T01:32:58;9.57;;;4.63;;
52320;SDS011;38261;54.090;13.382;2023-11-19T01:34:21;9.20;;;5.67;;
52320;SDS011;38261;54.090;13.382;2023-11-19T01:35:43;8.53;;;5.37;;
52320;SDS011;38261;54.090;13.382;2023-11-19T01:37:05;9.50;;;5.47;;
52320;SDS011;38261;54.090;13.382;2023-11-19T01:38:27;10.50;;;5.47;;
52320;SDS011;38261;54.090;13.382;2023-11-19T01:39:50;8.90;;;5.37;;
52320;SDS011;38261;54.090;13.382;2023-11-19T01:41:15;7.30;;;4.90;;
52320;SDS011;38261;54.090;13.382;2023-11-19T01:42:37;7.83;;;5.13;;
52320;SDS011;38261;54.090;13.382;2023-11-19T01:44:00;10.77;;;5.77;;
52320;SDS011;38261;54.090;13.382;2023-11-19T01:45:27;14.60;;;5.60;;
52320;SDS011;38261;54.090;13.382;2023-11-19T01:46:50;10.50;;;5.67;;
52320;SDS011;38261;54.090;13.382;2023-11-19T01:48:14;10.37;;;5.83;;
52320;SDS011;38261;54.090;13.382;2023-11-19T01:49:36;12.90;;;6.70;;
52320;SDS011;38261;54.090;13.382;2023-11-19T01:50:58;16.60;;;5.97;;
52320;SDS011;38261;54.090;13.382;2023-11-19T01:52:24;9.43;;;5.53;;
52320;SDS011;38261;54.090;13.382;2023-11-19T01:53:47;9.10;;;5.10;;
52320;SDS011;38261;54.090;13.382;2023-11-19T01:55:10;10.70;;;5.60;;
52320;SDS011;38261;54.090;13.382;2023-11-19T01:56:33;8.40;;;5.43;;
52320;SDS011;38261;54.090;13.382;2023-11-19T01:57:57;14.10;;;6.70;;
52320;SDS011;38261;54.090;13.382;2023-11-19T01:59:23;7.30;;;4.93;;
52320;SDS011;38261;54.090;13.382;2023-11-19T02:00:48;9.90;;;5.90;;
52320;SDS011;38261;54.090;13.382;2023-11-19T02:02:10;13.93;;;5.83;;
52320;SDS011;38261;54.090;13.382;2023-11-19T02:03:34;11.10;;;5.97;;
52320;SDS011;38261;54.090;13.382;2023-11-19T02:04:56;9.13;;;5.03;;
52320;SDS011;38261;54.090;13.382;2023-11-19T02:06:19;8.73;;;5.03;;
52320;SDS011;38261;54.090;13.382;2023-11-19T02:07:41;8.87;;;5.50;;
52320;SDS011;38261;54.090;13.382;2023-11-19T02:09:03;8.57;;;5.20;;
52320;SDS011;38261;54.090;13.382;2023-11-19T02:10:29;9.60;;;6.23;;
52320;SDS011;38261;54.090;13.382;2023-11-19T02:11:53;9.10;;;5.83;;
52320;SDS011;38261;54.090;13.382;2023-11-19T02:13:16;10.13;;;6.27;;
52320;SDS011;38261;54.090;13.382;2023-11-19T02:14:38;7.47;;;5.40;;
52320;SDS011;38261;54.090;13.382;2023-11-19T02:16:00;9.60;;;5.30;;
52320;SDS011;38261;54.090;13.382;2023-11-19T02:17:27;9.27;;;5.40;;
52320;SDS011;38261;54.090;13.382;2023-11-19T02:18:53;9.20;;;5.33;;
52320;SDS011;38261;54.090;13.382;2023-11-19T02:20:15;11.67;;;6.30;;
52320;SDS011;38261;54.090;13.382;2023-11-19T02:21:37;10.10;;;5.83;;
52320;SDS011;38261;54.090;13.382;2023-11-19T02:23:00;12.10;;;5.67;;
52320;SDS011;38261;54.090;13.382;2023-11-19T02:24:22;8.20;;;4.70;;
52320;SDS011;38261;54.090;13.382;2023-11-19T02:25:50;10.73;;;5.87;;
52320;SDS011;38261;54.090;13.382;2023-11-19T02:29:00;9.27;;;5.60;;
52320;SDS011;38261;54.090;13.382;2023-11-19T02:30:28;9.10;;;5.77;;
52320;SDS011;38261;54.090;13.382;2023-11-19T02:31:50;9.93;;;6.03;;
52320;SDS011;38261;54.090;13.382;2023-11-19T02:33:13;9.23;;;5.30;;
52320;SDS011;38261;54.090;13.382;2023-11-19T02:34:36;8.03;;;5.43;;
52320;SDS011;38261;54.090;13.382;2023-11-19T02:35:59;10.30;;;5.83;;
52320;SDS011;38261;54.090;13.382;2023-11-19T02:37:21;10.10;;;5.50;;
52320;SDS011;38261;54.090;13.382;2023-11-19T02:38:43;9.70;;;5.73;;
52320;SDS011;38261;54.090;13.382;2023-11-19T02:40:05;11.83;;;6.00;;
52320;SDS011;38261;54.090;13.382;2023-11-19T02:41:30;11.30;;;5.30;;
52320;SDS011;38261;54.090;13.382;2023-11-19T02:42:52;11.80;;;6.30;;
52320;SDS011;38261;54.090;13.382;2023-11-19T02:44:17;8.73;;;5.50;;
52320;SDS011;38261;54.090;13.382;2023-11-19T02:45:39;10.50;;;5.60;;
52320;SDS011;38261;54.090;13.382;2023-11-19T02:47:02;12.50;;;5.70;;
52320;SDS011;38261;54.090;13.382;2023-11-19T02:48:25;9.43;;;6.10;;
52320;SDS011;38261;54.090;13.382;2023-11-19T02:49:47;12.07;;;6.60;;
52320;SDS011;38261;54.090;13.382;2023-11-19T02:51:09;15.50;;;6.23;;
52320;SDS011;38261;54.090;13.382;2023-11-19T02:52:32;8.93;;;6.13;;
52320;SDS011;38261;54.090;13.382;2023-11-19T02:53:59;10.13;;;6.07;;
52320;SDS011;38261;54.090;13.382;2023-11-19T02:55:21;9.00;;;6.10;;
52320;SDS011;38261;54.090;13.382;2023-11-19T02:56:45;10.80;;;6.40;;
52320;SDS011;38261;54.090;13.382;2023-11-19T02:58:09;10.50;;;5.50;;
52320;SDS011;38261;54.090;13.382;2023-11-19T02:59:41;9.33;;;5.67;;
52320;SDS011;38261;54.090;13.382;2023-11-19T03:01:05;10.10;;;5.70;;
52320;SDS011;38261;54.090;13.382;2023-11-19T03:02:45;12.53;;;6.10;;
52320;SDS011;38261;54.090;13.382;2023-11-19T03:04:08;9.17;;;5.30;;
52320;SDS011;38261;54.090;13.382;2023-11-19T03:05:33;9.77;;;6.27;;
52320;SDS011;38261;54.090;13.382;2023-11-19T03:06:56;9.13;;;6.17;;
52320;SDS011;38261;54.090;13.382;2023-11-19T03:08:19;13.90;;;6.30;;
52320;SDS011;38261;54.090;13.382;2023-11-19T03:09:44;10.40;;;6.13;;
52320;SDS011;38261;54.090;13.382;2023-11-19T03:11:06;11.87;;;6.03;;
52320;SDS011;38261;54.090;13.382;2023-11-19T03:12:30;10.13;;;6.20;;
52320;SDS011;38261;54.090;13.382;2023-11-19T03:13:52;12.03;;;6.10;;
52320;SDS011;38261;54.090;13.382;2023-11-19T03:15:14;10.70;;;6.20;;
52320;SDS011;38261;54.090;13.382;2023-11-19T03:16:37;12.10;;;7.00;;
52320;SDS011;38261;54.090;13.382;2023-11-19T03:17:59;10.20;;;6.60;;
52320;SDS011;38261;54.090;13.382;2023-11-19T03:19:21;11.13;;;6.30;;
52320;SDS011;38261;54.090;13.382;2023-11-19T03:20:47;8.20;;;5.70;;
52320;SDS011;38261;54.090;13.382;2023-11-19T03:22:09;9.27;;;6.10;;
52320;SDS011;38261;54.090;13.382;2023-11-19T03:23:32;10.57;;;6.30;;
52320;SDS011;38261;54.090;13.382;2023-11-19T03:24:54;10.27;;;6.30;;
52320;SDS011;38261;54.090;13.382;2023-11-19T03:26:16;10.50;;;6.60;;
52320;SDS011;38261;54.090;13.382;2023-11-19T03:27:39;8.60;;;5.73;;
52320;SDS011;38261;54.090;13.382;2023-11-19T03:29:03;9.80;;;5.67;;
52320;SDS011;38261;54.090;13.382;2023-11-19T03:30:25;9.43;;;5.20;;
52320;SDS011;38261;54.090;13.382;2023-11-19T03:31:55;11.07;;;6.30;;
52320;SDS011;38261;54.090;13.382;2023-11-19T03:33:17;11.30;;;6.20;;
52320;SDS011;38261;54.090;13.382;2023-11-19T03:34:39;10.73;;;5.73;;
52320;SDS011;38261;54.090;13.382;2023-11-19T03:36:02;10.57;;;5.83;;
52320;SDS011;38261;54.090;13.382;2023-11-19T03:37:25;10.83;;;6.27;;
52320;SDS011;38261;54.090;13.382;2023-11-19T03:38:48;8.93;;;5.53;;
52320;SDS011;38261;54.090;13.382;2023-11-19T03:40:10;10.40;;;6.47;;
52320;SDS011;38261;54.090;13.382;2023-11-19T03:41:33;10.47;;;6.23;;
52320;SDS011;38261;54.090;13.382;2023-11-19T03:42:58;9.67;;;5.43;;
52320;SDS011;38261;54.090;13.382;2023-11-19T03:44:20;10.57;;;5.60;;
52320;SDS011;38261;54.090;13.382;2023-11-19T03:45:43;11.67;;;6.47;;
52320;SDS011;38261;54.090;13.382;2023-11-19T03:47:05;8.20;;;5.17;;
52320;SDS011;38261;54.090;13.382;2023-11-19T03:48:27;8.03;;;5.53;;
52320;SDS011;38261;54.090;13.382;2023-11-19T03:49:49;11.00;;;5.77;;
52320;SDS011;38261;54.090;13.382;2023-11-19T03:51:12;8.83;;;5.03;;
52320;SDS011;38261;54.090;13.382;2023-11-19T03:52:37;7.43;;;4.73;;
52320;SDS011;38261;54.090;13.382;2023-11-19T03:54:02;11.17;;;5.80;;
52320;SDS011;38261;54.090;13.382;2023-11-19T03:55:25;9.67;;;6.10;;
52320;SDS011;38261;54.090;13.382;2023-11-19T03:56:47;10.50;;;5.53;;
52320;SDS011;38261;54.090;13.382;2023-11-19T03:58:09;14.40;;;5.87;;
52320;SDS011;38261;54.090;13.382;2023-11-19T03:59:31;12.00;;;5.97;;
52320;SDS011;38261;54.090;13.382;2023-11-19T04:00:54;9.77;;;5.03;;
52320;SDS011;38261;54.090;13.382;2023-11-19T04:02:17;9.97;;;5.50;;
52320;SDS011;38261;54.090;13.382;2023-11-19T04:03:39;10.70;;;4.93;;
52320;SDS011;38261;54.090;13.382;2023-11-19T04:05:11;10.73;;;5.97;;
52320;SDS011;38261;54.090;13.382;2023-11-19T04:06:34;8.40;;;5.30;;
52320;SDS011;38261;54.090;13.382;2023-11-19T04:07:56;9.63;;;5.37;;
52320;SDS011;38261;54.090;13.382;2023-11-19T04:09:18;13.03;;;6.53;;
52320;SDS011;38261;54.090;13.382;2023-11-19T04:10:40;10.13;;;6.07;;
52320;SDS011;38261;54.090;13.382;2023-11-19T04:12:02;7.70;;;5.40;;
52320;SDS011;38261;54.090;13.382;2023-11-19T04:13:25;9.80;;;5.00;;
52320;SDS011;38261;54.090;13.382;2023-11-19T04:14:47;10.63;;;5.57;;
52320;SDS011;38261;54.090;13.382;2023-11-19T04:16:28;9.03;;;5.30;;
52320;SDS011;38261;54.090;13.382;2023-11-19T04:17:52;7.83;;;5.10;;
52320;SDS011;38261;54.090;13.382;2023-11-19T04:19:14;10.17;;;5.63;;
52320;SDS011;38261;54.090;13.382;2023-11-19T04:20:36;8.53;;;5.77;;
52320;SDS011;38261;54.090;13.382;2023-11-19T04:21:59;9.20;;;5.53;;
52320;SDS011;38261;54.090;13.382;2023-11-19T04:23:21;8.60;;;5.30;;
52320;SDS011;38261;54.090;13.382;2023-11-19T04:24:43;9.37;;;4.93;;
52320;SDS011;38261;54.090;13.382;2023-11-19T04:26:07;7.70;;;5.23;;
52320;SDS011;38261;54.090;13.382;2023-11-19T04:27:32;8.47;;;5.07;;
52320;SDS011;38261;54.090;13.382;2023-11-19T04:28:54;8.87;;;5.80;;
52320;SDS011;38261;54.090;13.382;2023-11-19T04:30:16;9.10;;;5.47;;
52320;SDS011;38261;54.090;13.382;2023-11-19T04:31:38;7.67;;;5.97;;
52320;SDS011;38261;54.090;13.382;2023-11-19T04:33:01;11.43;;;5.60;;
52320;SDS011;38261;54.090;13.382;2023-11-19T04:34:23;9.20;;;5.17;;
52320;SDS011;38261;54.090;13.382;2023-11-19T04:35:45;7.23;;;4.70;;
52320;SDS011;38261;54.090;13.382;2023-11-19T04:37:07;8.30;;;5.30;;
52320;SDS011;38261;54.090;13.382;2023-11-19T04:38:34;10.17;;;5.07;;
52320;SDS011;38261;54.090;13.382;2023-11-19T04:39:56;11.23;;;5.90;;
52320;SDS011;38261;54.090;13.382;2023-11-19T04:41:18;9.50;;;5.80;;
52320;SDS011;38261;54.090;13.382;2023-11-19T04:42:40;9.47;;;5.73;;
52320;SDS011;38261;54.090;13.382;2023-11-19T04:44:02;9.30;;;5.70;;
52320;SDS011;38261;54.090;13.382;2023-11-19T04:45:24;8.90;;;5.07;;
52320;SDS011;38261;54.090;13.382;2023-11-19T04:46:46;11.90;;;6.73;;
52320;SDS011;38261;54.090;13.382;2023-11-19T04:48:09;10.10;;;5.37;;
52320;SDS011;38261;54.090;13.382;2023-11-19T04:49:31;11.77;;;6.40;;
52320;SDS011;38261;54.090;13.382;2023-11-19T04:50:53;10.13;;;6.47;;
52320;SDS011;38261;54.090;13.382;2023-11-19T04:52:15;12.53;;;6.10;;
52320;SDS011;38261;54.090;13.382;2023-11-19T04:53:37;11.80;;;6.23;;
52320;SDS011;38261;54.090;13.382;2023-11-19T04:55:00;10.30;;;6.27;;
52320;SDS011;38261;54.090;13.382;2023-11-19T04:56:22;8.73;;;5.43;;
52320;SDS011;38261;54.090;13.382;2023-11-19T04:57:44;9.47;;;5.90;;
52320;SDS011;38261;54.090;13.382;2023-11-19T04:59:07;11.70;;;6.23;;
52320;SDS011;38261;54.090;13.382;2023-11-19T05:00:30;15.00;;;7.40;;
52320;SDS011;38261;54.090;13.382;2023-11-19T05:01:52;9.90;;;6.30;;
52320;SDS011;38261;54.090;13.382;2023-11-19T05:03:14;10.97;;;6.00;;
52320;SDS011;38261;54.090;13.382;2023-11-19T05:04:37;13.60;;;6.40;;
52320;SDS011;38261;54.090;13.382;2023-11-19T05:06:01;12.63;;;7.70;;
52320;SDS011;38261;54.090;13.382;2023-11-19T05:07:24;10.20;;;6.27;;
52320;SDS011;38261;54.090;13.382;2023-11-19T05:08:46;12.30;;;7.20;;
52320;SDS011;38261;54.090;13.382;2023-11-19T05:10:08;11.53;;;7.00;;
52320;SDS011;38261;54.090;13.382;2023-11-19T05:11:31;12.50;;;7.60;;
52320;SDS011;38261;54.090;13.382;2023-11-19T05:12:53;14.07;;;7.60;;
52320;SDS011;38261;54.090;13.382;2023-11-19T05:14:17;13.83;;;7.33;;
52320;SDS011;38261;54.090;13.382;2023-11-19T05:15:43;12.80;;;6.53;;
52320;SDS011;38261;54.090;13.382;2023-11-19T05:17:05;13.20;;;7.73;;
52320;SDS011;38261;54.090;13.382;2023-11-19T05:18:29;15.10;;;6.83;;
52320;SDS011;38261;54.090;13.382;2023-11-19T05:19:51;12.63;;;6.83;;
52320;SDS011;38261;54.090;13.382;2023-11-19T05:21:14;11.57;;;6.97;;
52320;SDS011;38261;54.090;13.382;2023-11-19T05:22:36;11.30;;;7.33;;
52320;SDS011;38261;54.090;13.382;2023-11-19T05:23:58;15.47;;;7.40;;
52320;SDS011;38261;54.090;13.382;2023-11-19T05:25:21;10.93;;;7.40;;
52320;SDS011;38261;54.090;13.382;2023-11-19T05:26:43;14.73;;;8.37;;
52320;SDS011;38261;54.090;13.382;2023-11-19T05:28:05;11.97;;;7.30;;
52320;SDS011;38261;54.090;13.382;2023-11-19T05:29:27;11.73;;;7.07;;
52320;SDS011;38261;54.090;13.382;2023-11-19T05:30:50;15.80;;;8.70;;
52320;SDS011;38261;54.090;13.382;2023-11-19T05:32:12;20.43;;;8.03;;
52320;SDS011;38261;54.090;13.382;2023-11-19T05:33:34;13.27;;;8.40;;
52320;SDS011;38261;54.090;13.382;2023-11-19T05:34:57;14.23;;;7.60;;
52320;SDS011;38261;54.090;13.382;2023-11-19T05:36:19;13.87;;;8.20;;
52320;SDS011;38261;54.090;13.382;2023-11-19T05:37:41;15.97;;;8.13;;
52320;SDS011;38261;54.090;13.382;2023-11-19T05:39:03;13.60;;;8.07;;
52320;SDS011;38261;54.090;13.382;2023-11-19T05:40:26;16.47;;;9.03;;
52320;SDS011;38261;54.090;13.382;2023-11-19T05:41:48;12.40;;;6.93;;
52320;SDS011;38261;54.090;13.382;2023-11-19T05:43:10;12.27;;;7.73;;
52320;SDS011;38261;54.090;13.382;2023-11-19T05:44:33;15.50;;;8.37;;
52320;SDS011;38261;54.090;13.382;2023-11-19T05:45:57;14.80;;;8.37;;
52320;SDS011;38261;54.090;13.382;2023-11-19T05:47:20;13.90;;;8.20;;
52320;SDS011;38261;54.090;13.382;2023-11-19T05:48:42;16.27;;;9.00;;
52320;SDS011;38261;54.090;13.382;2023-11-19T05:50:05;14.80;;;9.00;;
52320;SDS011;38261;54.090;13.382;2023-11-19T05:51:27;12.27;;;7.80;;
52320;SDS011;38261;54.090;13.382;2023-11-19T05:52:50;14.13;;;8.93;;
52320;SDS011;38261;54.090;13.382;2023-11-19T05:54:14;12.63;;;8.07;;
52320;SDS011;38261;54.090;13.382;2023-11-19T05:55:37;14.67;;;8.57;;
52320;SDS011;38261;54.090;13.382;2023-11-19T05:57:07;15.17;;;8.23;;
52320;SDS011;38261;54.090;13.382;2023-11-19T05:58:31;11.27;;;7.53;;
52320;SDS011;38261;54.090;13.382;2023-11-19T05:59:54;12.83;;;7.30;;
52320;SDS011;38261;54.090;13.382;2023-11-19T06:01:16;16.57;;;8.57;;
52320;SDS011;38261;54.090;13.382;2023-11-19T06:02:39;14.90;;;8.90;;
52320;SDS011;38261;54.090;13.382;2023-11-19T06:04:01;12.57;;;7.50;;
52320;SDS011;38261;54.090;13.382;2023-11-19T06:05:24;10.70;;;7.37;;
52320;SDS011;38261;54.090;13.382;2023-11-19T06:06:46;13.03;;;8.17;;
52320;SDS011;38261;54.090;13.382;2023-11-19T06:08:08;16.00;;;8.00;;
52320;SDS011;38261;54.090;13.382;2023-11-19T06:09:30;15.77;;;7.97;;
52320;SDS011;38261;54.090;13.382;2023-11-19T06:10:55;13.53;;;7.73;;
52320;SDS011;38261;54.090;13.382;2023-11-19T06:12:17;13.10;;;7.80;;
52320;SDS011;38261;54.090;13.382;2023-11-19T06:13:40;10.60;;;7.03;;
52320;SDS011;38261;54.090;13.382;2023-11-19T06:15:02;19.50;;;8.33;;
52320;SDS011;38261;54.090;13.382;2023-11-19T06:16:26;18.50;;;6.93;;
52320;SDS011;38261;54.090;13.382;2023-11-19T06:17:48;15.77;;;7.90;;
52320;SDS011;38261;54.090;13.382;2023-11-19T06:19:10;14.50;;;8.70;;
52320;SDS011;38261;54.090;13.382;2023-11-19T06:20:33;11.00;;;7.83;;
52320;SDS011;38261;54.090;13.382;2023-11-19T06:21:58;15.00;;;7.90;;
52320;SDS011;38261;54.090;13.382;2023-11-19T06:23:20;13.07;;;8.10;;
52320;SDS011;38261;54.090;13.382;2023-11-19T06:24:43;17.70;;;7.77;;
52320;SDS011;38261;54.090;13.382;2023-11-19T06:26:05;14.77;;;7.30;;
52320;SDS011;38261;54.090;13.382;2023-11-19T06:27:27;14.43;;;6.93;;
52320;SDS011;38261;54.090;13.382;2023-11-19T06:28:50;13.27;;;8.23;;
52320;SDS011;38261;54.090;13.382;2023-11-19T06:30:12;13.30;;;7.03;;
52320;SDS011;38261;54.090;13.382;2023-11-19T06:31:34;11.80;;;7.20;;
52320;SDS011;38261;54.090;13.382;2023-11-19T06:32:56;14.90;;;7.30;;
52320;SDS011;38261;54.090;13.382;2023-11-19T06:34:19;11.27;;;7.43;;
52320;SDS011;38261;54.090;13.382;2023-11-19T06:35:41;13.27;;;7.43;;
52320;SDS011;38261;54.090;13.382;2023-11-19T06:37:03;12.03;;;7.53;;
52320;SDS011;38261;54.090;13.382;2023-11-19T06:38:26;13.93;;;7.40;;
52320;SDS011;38261;54.090;13.382;2023-11-19T06:39:48;11.87;;;7.40;;
52320;SDS011;38261;54.090;13.382;2023-11-19T06:41:10;14.60;;;7.90;;
52320;SDS011;38261;54.090;13.382;2023-11-19T06:42:32;11.67;;;6.93;;
52320;SDS011;38261;54.090;13.382;2023-11-19T06:43:54;12.87;;;7.90;;
52320;SDS011;38261;54.090;13.382;2023-11-19T06:45:17;13.37;;;7.87;;
52320;SDS011;38261;54.090;13.382;2023-11-19T06:46:39;14.67;;;8.30;;
52320;SDS011;38261;54.090;13.382;2023-11-19T06:48:02;12.13;;;7.40;;
52320;SDS011;38261;54.090;13.382;2023-11-19T06:49:27;14.67;;;7.50;;
52320;SDS011;38261;54.090;13.382;2023-11-19T06:50:49;13.03;;;8.10;;
52320;SDS011;38261;54.090;13.382;2023-11-19T06:52:11;14.77;;;7.63;;
52320;SDS011;38261;54.090;13.382;2023-11-19T06:53:33;12.27;;;7.23;;
52320;SDS011;38261;54.090;13.382;2023-11-19T06:54:55;17.50;;;8.10;;
52320;SDS011;38261;54.090;13.382;2023-11-19T06:56:29;14.77;;;7.53;;
52320;SDS011;38261;54.090;13.382;2023-11-19T06:57:51;16.03;;;7.87;;
52320;SDS011;38261;54.090;13.382;2023-11-19T06:59:13;13.13;;;6.93;;
52320;SDS011;38261;54.090;13.382;2023-11-19T07:00:35;13.77;;;8.07;;
52320;SDS011;38261;54.090;13.382;2023-11-19T07:01:58;13.87;;;6.40;;
52320;SDS011;38261;54.090;13.382;2023-11-19T07:03:20;11.33;;;7.00;;
52320;SDS011;38261;54.090;13.382;2023-11-19T07:04:43;14.30;;;7.00;;
52320;SDS011;38261;54.090;13.382;2023-11-19T07:06:05;11.90;;;7.20;;
52320;SDS011;38261;54.090;13.382;2023-11-19T07:07:27;13.20;;;7.27;;
52320;SDS011;38261;54.090;13.382;2023-11-19T07:08:49;12.87;;;7.20;;
52320;SDS011;38261;54.090;13.382;2023-11-19T07:10:12;12.67;;;7.83;;
52320;SDS011;38261;54.090;13.382;2023-11-19T07:11:37;9.93;;;6.80;;
52320;SDS011;38261;54.090;13.382;2023-11-19T07:13:01;10.67;;;6.63;;
52320;SDS011;38261;54.090;13.382;2023-11-19T07:14:24;13.77;;;7.53;;
52320;SDS011;38261;54.090;13.382;2023-11-19T07:15:46;13.30;;;7.17;;
52320;SDS011;38261;54.090;13.382;2023-11-19T07:17:08;13.00;;;7.57;;
52320;SDS011;38261;54.090;13.382;2023-11-19T07:18:32;11.17;;;6.77;;
52320;SDS011;38261;54.090;13.382;2023-11-19T07:19:54;10.37;;;6.20;;
52320;SDS011;38261;54.090;13.382;2023-11-19T07:21:16;10.03;;;6.00;;
52320;SDS011;38261;54.090;13.382;2023-11-19T07:22:38;11.57;;;6.53;;
52320;SDS011;38261;54.090;13.382;2023-11-19T07:24:02;14.60;;;7.70;;
52320;SDS011;38261;54.090;13.382;2023-11-19T07:25:24;14.23;;;7.03;;
52320;SDS011;38261;54.090;13.382;2023-11-19T07:26:47;13.50;;;8.70;;
52320;SDS011;38261;54.090;13.382;2023-11-19T07:28:09;12.53;;;6.83;;
52320;SDS011;38261;54.090;13.382;2023-11-19T07:29:31;12.90;;;7.30;;
52320;SDS011;38261;54.090;13.382;2023-11-19T07:30:53;15.03;;;7.27;;
52320;SDS011;38261;54.090;13.382;2023-11-19T07:32:17;13.60;;;7.83;;
52320;SDS011;38261;54.090;13.382;2023-11-19T07:33:40;10.23;;;5.83;;
52320;SDS011;38261;54.090;13.382;2023-11-19T07:35:05;13.07;;;6.83;;
52320;SDS011;38261;54.090;13.382;2023-11-19T07:36:28;10.37;;;5.90;;
52320;SDS011;38261;54.090;13.382;2023-11-19T07:37:50;10.20;;;6.10;;
52320;SDS011;38261;54.090;13.382;2023-11-19T07:39:13;15.23;;;7.40;;
52320;SDS011;38261;54.090;13.382;2023-11-19T07:40:35;11.60;;;7.13;;
52320;SDS011;38261;54.090;13.382;2023-11-19T07:41:57;11.10;;;6.00;;
52320;SDS011;38261;54.090;13.382;2023-11-19T07:43:19;11.60;;;5.93;;
52320;SDS011;38261;54.090;13.382;2023-11-19T07:44:42;9.57;;;5.93;;
52320;SDS011;38261;54.090;13.382;2023-11-19T07:46:05;11.70;;;6.37;;
52320;SDS011;38261;54.090;13.382;2023-11-19T07:47:31;10.63;;;5.63;;
52320;SDS011;38261;54.090;13.382;2023-11-19T07:48:53;9.70;;;6.10;;
52320;SDS011;38261;54.090;13.382;2023-11-19T07:50:16;12.17;;;6.40;;
52320;SDS011;38261;54.090;13.382;2023-11-19T07:51:40;11.07;;;6.67;;
52320;SDS011;38261;54.090;13.382;2023-11-19T07:53:03;9.17;;;5.70;;
52320;SDS011;38261;54.090;13.382;2023-11-19T07:54:27;7.90;;;5.60;;
52320;SDS011;38261;54.090;13.382;2023-11-19T07:55:49;8.23;;;5.57;;
52320;SDS011;38261;54.090;13.382;2023-11-19T07:57:11;8.80;;;5.13;;
52320;SDS011;38261;54.090;13.382;2023-11-19T07:58:33;11.00;;;6.10;;
52320;SDS011;38261;54.090;13.382;2023-11-19T07:59:56;9.13;;;5.20;;
52320;SDS011;38261;54.090;13.382;2023-11-19T08:01:19;11.50;;;6.50;;
52320;SDS011;38261;54.090;13.382;2023-11-19T08:02:41;11.23;;;6.20;;
52320;SDS011;38261;54.090;13.382;2023-11-19T08:04:03;11.27;;;6.80;;
52320;SDS011;38261;54.090;13.382;2023-11-19T08:05:26;9.03;;;5.87;;
52320;SDS011;38261;54.090;13.382;2023-11-19T08:06:48;10.03;;;6.80;;
52320;SDS011;38261;54.090;13.382;2023-11-19T08:08:10;7.93;;;5.87;;
52320;SDS011;38261;54.090;13.382;2023-11-19T08:09:33;9.40;;;5.43;;